createdAt,value
2023-02-13T00:01:37.197Z,103363.81
2023-02-13T00:04:16.756Z,103366.34
2023-02-13T00:06:47.896Z,103455.31
2023-02-13T00:09:22.954Z,103500.06
2023-02-13T00:12:06.318Z,103483.31
2023-02-13T00:14:40.235Z,103348.63
2023-02-13T00:17:25.571Z,103403.41
2023-02-13T00:20:21.340Z,103386.25
2023-02-13T00:22:49.064Z,103418.06
2023-02-13T00:25:21.806Z,103428.94
2023-02-13T00:27:58.316Z,103380.09
2023-02-13T00:30:26.370Z,103368.00
2023-02-13T00:32:59.884Z,103463.41
2023-02-13T00:36:15.039Z,103366.38
2023-02-13T00:39:03.725Z,103355.47
2023-02-13T00:41:54.375Z,103406.63
2023-02-13T00:44:28.441Z,103460.75
2023-02-13T00:47:14.242Z,103473.25
2023-02-13T00:49:57.092Z,103345.91
2023-02-13T00:52:36.676Z,103458.94
2023-02-13T00:55:05.341Z,103358.75
2023-02-13T00:57:38.791Z,103408.03
2023-02-13T01:00:08.371Z,103368.31
2023-02-13T01:02:43.799Z,103473.25
2023-02-13T01:05:17.463Z,103382.22
2023-02-13T01:07:45.214Z,103477.09
2023-02-13T01:10:13.757Z,103420.09
2023-02-13T01:12:56.820Z,103385.63
2023-02-13T01:15:30.557Z,103475.06
2023-02-13T01:18:07.810Z,103459.94
2023-02-13T01:20:46.321Z,103427.44
2023-02-13T01:23:16.827Z,103492.06
2023-02-13T01:25:51.866Z,103399.00
2023-02-13T01:28:28.834Z,103440.31
2023-02-13T01:31:18.179Z,103433.19
2023-02-13T01:34:06.330Z,103369.78
2023-02-13T01:36:48.558Z,103476.34
2023-02-13T01:39:59.457Z,103357.63
2023-02-13T01:42:35.609Z,103434.25
2023-02-13T01:45:21.512Z,103378.31
2023-02-13T01:48:18.718Z,103452.69
2023-02-13T01:51:16.261Z,103422.53
2023-02-13T01:53:58.999Z,103331.84
2023-02-13T01:56:55.742Z,103364.69
2023-02-13T01:59:37.842Z,103441.91
2023-02-13T02:02:25.440Z,103347.09
2023-02-13T02:05:24.914Z,103326.84
2023-02-13T02:07:58.035Z,103369.78
2023-02-13T02:10:30.657Z,103368.91
2023-02-13T02:13:19.587Z,103346.59
2023-02-13T02:15:56.006Z,103311.78
2023-02-13T02:18:44.857Z,103351.59
2023-02-13T02:22:07.254Z,103447.41
2023-02-13T02:25:46.210Z,103455.88
2023-02-13T02:28:31.883Z,103437.94
2023-02-13T02:32:08.488Z,103450.78
2023-02-13T02:35:34.483Z,103460.47
2023-02-13T02:38:48.965Z,103466.03
2023-02-13T02:41:49.467Z,103346.50
2023-02-13T02:44:45.886Z,103456.47
2023-02-13T02:48:18.365Z,103465.56
2023-02-13T02:51:02.823Z,103449.16
2023-02-13T02:53:46.354Z,103455.31
2023-02-13T02:56:40.441Z,103457.72
2023-02-13T02:59:34.171Z,103442.28
2023-02-13T03:02:27.301Z,103460.44
2023-02-13T03:05:18.190Z,103432.50
2023-02-13T03:07:47.300Z,103456.81
2023-02-13T03:10:50.408Z,103454.34
2023-02-13T03:13:52.744Z,103434.50
2023-02-13T03:16:46.141Z,103453.94
2023-02-13T03:19:44.285Z,103450.66
2023-02-13T03:23:00.165Z,103462.34
2023-02-13T03:25:48.134Z,103453.25
2023-02-13T03:28:59.607Z,103446.41
2023-02-13T03:32:11.852Z,103462.19
2023-02-13T03:35:06.739Z,103446.38
2023-02-13T03:37:54.553Z,103428.31
2023-02-13T03:40:35.860Z,103465.91
2023-02-13T03:43:14.379Z,103449.66
2023-02-13T03:45:53.862Z,103435.78
2023-02-13T03:48:47.671Z,103447.91
2023-02-13T03:51:29.080Z,103450.16
2023-02-13T03:54:05.329Z,103432.06
2023-02-13T03:56:53.535Z,103455.53
2023-02-13T03:59:32.868Z,103445.13
2023-02-13T04:02:14.531Z,103426.53
2023-02-13T04:05:18.618Z,103389.03
2023-02-13T04:07:46.339Z,103424.00
2023-02-13T04:10:16.908Z,103457.72
2023-02-13T04:13:17.088Z,103452.16
2023-02-13T04:16:22.248Z,103447.91
2023-02-13T04:18:52.806Z,103430.59
2023-02-13T04:21:20.486Z,103450.34
2023-02-13T04:23:48.084Z,103441.78
2023-02-13T04:26:23.124Z,103421.22
2023-02-13T04:28:50.838Z,103438.81
2023-02-13T04:31:20.904Z,103444.47
2023-02-13T04:33:48.687Z,103439.66
2023-02-13T04:36:18.872Z,103438.31
2023-02-13T04:38:51.539Z,103445.25
2023-02-13T04:41:19.572Z,103421.28
2023-02-13T04:43:53.548Z,103436.97
2023-02-13T04:46:31.292Z,103412.97
2023-02-13T04:48:58.953Z,103408.19
2023-02-13T04:51:29.397Z,103439.69
2023-02-13T04:53:57.068Z,103430.97
2023-02-13T04:56:24.898Z,103443.38
2023-02-13T04:58:52.766Z,103406.75
2023-02-13T05:01:20.557Z,103432.63
2023-02-13T05:03:48.733Z,103426.28
2023-02-13T05:06:16.367Z,103432.09
2023-02-13T05:08:44.021Z,103438.06
2023-02-13T05:11:14.294Z,103433.66
2023-02-13T05:13:42.725Z,103433.56
2023-02-13T05:19:10.282Z,103436.78
2023-02-13T05:21:59.063Z,103414.63
2023-02-13T05:24:28.135Z,103440.94
2023-02-13T05:27:05.984Z,103405.22
2023-02-13T05:29:36.600Z,103338.84
2023-02-13T05:32:06.964Z,103422.69
2023-02-13T05:34:37.401Z,103427.97
2023-02-13T05:37:07.706Z,103415.22
2023-02-13T05:39:35.471Z,103433.44
2023-02-13T05:42:13.091Z,103433.22
2023-02-13T05:44:45.380Z,103400.00
2023-02-13T05:47:15.358Z,103419.78
2023-02-13T05:49:45.834Z,103313.97
2023-02-13T05:52:16.660Z,103391.97
2023-02-13T05:55:01.946Z,103430.50
2023-02-13T05:57:33.910Z,103368.41
2023-02-13T06:00:15.561Z,103447.63
2023-02-13T06:02:43.277Z,103420.00
2023-02-13T06:05:25.536Z,103430.94
2023-02-13T06:07:55.586Z,103435.75
2023-02-13T06:10:26.018Z,103422.84
2023-02-13T06:12:56.636Z,103387.66
2023-02-13T06:15:27.768Z,103393.03
2023-02-13T06:17:58.508Z,103432.41
2023-02-13T06:20:26.243Z,103422.91
2023-02-13T06:22:57.259Z,103414.16
2023-02-13T06:25:26.199Z,103415.03
2023-02-13T06:27:53.976Z,103401.25
2023-02-13T06:30:22.452Z,103452.28
2023-02-13T06:33:02.049Z,103448.41
2023-02-13T06:35:39.376Z,103426.28
2023-02-13T06:38:09.262Z,103414.56
2023-02-13T06:40:39.876Z,103446.38
2023-02-13T06:43:16.807Z,103447.69
2023-02-13T06:45:50.015Z,103440.59
2023-02-13T06:48:20.642Z,103457.72
2023-02-13T06:50:57.428Z,103444.34
2023-02-13T06:58:46.818Z,103461.81
2023-02-13T07:01:15.790Z,103436.47
2023-02-13T07:03:44.975Z,103461.34
2023-02-13T07:06:20.326Z,103472.34
2023-02-13T07:08:48.534Z,103479.28
2023-02-13T07:11:22.245Z,103491.44
2023-02-13T07:13:53.467Z,103420.91
2023-02-13T07:16:22.537Z,103475.44
2023-02-13T07:18:50.528Z,103413.72
2023-02-13T07:21:18.205Z,103494.69
2023-02-13T07:23:45.787Z,103465.25
2023-02-13T07:26:13.528Z,103497.78
2023-02-13T07:28:41.219Z,103495.31
2023-02-13T07:31:09.019Z,103422.78
2023-02-13T07:33:37.252Z,103499.00
2023-02-13T07:36:05.836Z,103507.06
2023-02-13T07:38:33.809Z,103506.72
2023-02-13T07:41:03.644Z,103473.81
2023-02-13T07:43:31.529Z,103489.53
2023-02-13T07:46:01.266Z,103442.66
2023-02-13T07:48:30.928Z,103495.75
2023-02-13T07:51:06.488Z,103506.91
2023-02-13T07:53:34.370Z,103470.63
2023-02-13T07:56:07.796Z,103482.94
2023-02-13T07:58:37.094Z,103507.09
2023-02-13T08:01:16.768Z,103492.78
2023-02-13T08:03:51.419Z,103482.22
2023-02-13T08:06:20.433Z,103510.19
2023-02-13T08:08:48.634Z,103495.13
2023-02-13T08:11:46.964Z,103506.31
2023-02-13T08:14:14.662Z,103506.75
2023-02-13T08:16:42.274Z,103514.75
2023-02-13T08:19:10.202Z,103506.03
2023-02-13T08:21:38.234Z,103520.25
2023-02-13T08:24:06.318Z,103509.13
2023-02-13T08:26:46.669Z,103521.59
2023-02-13T08:29:14.738Z,103512.53
2023-02-13T08:31:42.475Z,103513.63
2023-02-13T08:34:10.617Z,103496.59
2023-02-13T08:36:38.407Z,103523.28
2023-02-13T08:39:06.378Z,103522.22
2023-02-13T08:41:34.021Z,103511.09
2023-02-13T08:44:01.812Z,103515.88
2023-02-13T08:46:29.480Z,103522.81
2023-02-13T08:48:57.230Z,103506.78
2023-02-13T08:51:24.977Z,103513.66
2023-02-13T08:54:05.877Z,103415.66
2023-02-13T08:56:35.876Z,103411.03
2023-02-13T08:59:11.385Z,103512.59
2023-02-13T09:01:43.231Z,103475.34
2023-02-13T09:04:18.400Z,103446.00
2023-02-13T09:06:48.529Z,103427.00
2023-02-13T09:09:18.734Z,103474.69
2023-02-13T09:12:29.786Z,103437.88
2023-02-13T09:14:57.597Z,103497.31
2023-02-13T09:17:45.270Z,103516.75
2023-02-13T09:20:16.251Z,103526.81
2023-02-13T09:22:46.758Z,103541.06
2023-02-13T09:25:14.786Z,103516.69
2023-02-13T09:27:42.395Z,103436.72
2023-02-13T09:30:18.448Z,103501.94
2023-02-13T09:32:46.336Z,103531.63
2023-02-13T09:35:16.916Z,103500.25
2023-02-13T09:37:47.224Z,103526.00
2023-02-13T09:40:51.347Z,103532.47
2023-02-13T09:43:45.302Z,103527.78
2023-02-13T09:46:39.962Z,103492.06
2023-02-13T09:49:24.939Z,103524.09
2023-02-13T09:51:57.344Z,103523.88
2023-02-13T09:54:27.065Z,103501.56
2023-02-13T09:57:09.184Z,103544.63
2023-02-13T10:00:04.474Z,103543.25
2023-02-13T10:02:46.351Z,103539.03
2023-02-13T10:05:44.596Z,103544.78
2023-02-13T10:08:46.440Z,103538.44
2023-02-13T10:11:29.888Z,103543.31
2023-02-13T10:14:31.697Z,103543.66
2023-02-13T10:17:17.570Z,103536.34
2023-02-13T10:20:02.163Z,103509.34
2023-02-13T10:22:38.590Z,103534.44
2023-02-13T10:25:16.137Z,103532.88
2023-02-13T10:27:53.615Z,103528.66
2023-02-13T10:30:37.056Z,103508.50
2023-02-13T10:33:24.232Z,103517.00
2023-02-13T10:36:05.318Z,103522.59
2023-02-13T10:39:04.461Z,103517.13
2023-02-13T10:41:44.308Z,103523.94
2023-02-13T10:45:01.378Z,103522.28
2023-02-13T10:48:01.673Z,103506.41
2023-02-13T10:50:32.363Z,103501.63
2023-02-13T10:53:36.794Z,103499.72
2023-02-13T10:56:24.113Z,103492.47
2023-02-13T10:59:20.487Z,103491.09
2023-02-13T11:02:23.025Z,103474.78
2023-02-13T11:05:18.408Z,103505.72
2023-02-13T11:07:48.034Z,103499.75
2023-02-13T11:10:24.979Z,103494.56
2023-02-13T11:12:53.790Z,103476.19
2023-02-13T11:15:32.345Z,103466.84
2023-02-13T11:18:13.482Z,103477.84
2023-02-13T11:20:48.153Z,103494.34
2023-02-13T11:23:31.121Z,103482.53
2023-02-13T11:26:26.024Z,103464.75
2023-02-13T11:29:05.103Z,103488.28
2023-02-13T11:31:36.291Z,103487.00
2023-02-13T11:34:22.450Z,103487.53
2023-02-13T11:37:07.647Z,103483.09
2023-02-13T11:39:35.324Z,103477.41
2023-02-13T11:42:03.031Z,103486.94
2023-02-13T11:44:35.148Z,103486.44
2023-02-13T11:47:05.656Z,103481.16
2023-02-13T11:49:44.451Z,103470.56
2023-02-13T11:52:44.038Z,103487.56
2023-02-13T11:55:35.887Z,103485.44
2023-02-13T11:58:25.561Z,103482.91
2023-02-13T12:01:12.137Z,103483.00
2023-02-13T12:03:43.180Z,103475.06
2023-02-13T12:06:18.490Z,103436.78
2023-02-13T12:08:49.362Z,103476.38
2023-02-13T12:11:44.517Z,103482.97
2023-02-13T12:14:20.432Z,103471.28
2023-02-13T12:16:58.451Z,103468.56
2023-02-13T12:19:39.733Z,103463.44
2023-02-13T12:22:33.972Z,103463.84
2023-02-13T12:25:39.784Z,103457.19
2023-02-13T12:28:39.408Z,103463.94
2023-02-13T12:31:36.582Z,103456.69
2023-02-13T12:34:32.910Z,103447.25
2023-02-13T12:37:20.219Z,103464.31
2023-02-13T12:40:39.212Z,103456.69
2023-02-13T12:44:05.499Z,103458.81
2023-02-13T12:47:10.177Z,103446.66
2023-02-13T12:50:22.389Z,103392.94
2023-02-13T12:53:04.945Z,103448.25
2023-02-13T12:55:58.195Z,103451.56
2023-02-13T12:58:56.241Z,103451.72
2023-02-13T13:02:10.678Z,103441.44
2023-02-13T13:05:19.832Z,103438.28
2023-02-13T13:08:23.609Z,103442.72
2023-02-13T13:11:43.577Z,103435.09
2023-02-13T13:14:31.330Z,103437.66
2023-02-13T13:17:50.684Z,103439.97
2023-02-13T13:20:58.272Z,103439.63
2023-02-13T13:23:57.745Z,103326.31
2023-02-13T13:26:57.470Z,103433.47
2023-02-13T13:30:00.297Z,103312.25
2023-02-13T13:33:28.983Z,103456.13
2023-02-13T13:36:29.341Z,103444.56
2023-02-13T13:39:27.288Z,103432.47
2023-02-13T13:42:10.655Z,103428.72
2023-02-13T13:50:16.402Z,103428.81
2023-02-13T13:53:27.804Z,103390.84
2023-02-13T13:56:10.446Z,103422.78
2023-02-13T13:58:51.147Z,103414.19
2023-02-13T14:01:31.122Z,103426.28
2023-02-13T14:04:21.764Z,103378.59
2023-02-13T14:06:51.948Z,103425.78
2023-02-13T14:09:48.212Z,103406.44
2023-02-13T14:13:00.685Z,103344.81
2023-02-13T14:15:42.578Z,103413.84
2023-02-13T14:18:21.961Z,103422.53
2023-02-13T14:21:01.357Z,103346.56
2023-02-13T14:23:38.694Z,103419.63
2023-02-13T14:26:15.918Z,103413.34
2023-02-13T14:28:56.510Z,103404.22
2023-02-13T14:31:41.980Z,103300.19
2023-02-13T14:34:36.338Z,103404.81
2023-02-13T14:37:53.749Z,103405.69
2023-02-13T14:40:53.607Z,103365.94
2023-02-13T14:44:17.794Z,103287.88
2023-02-13T14:46:56.779Z,103326.19
2023-02-13T14:49:49.842Z,103302.34
2023-02-13T14:52:29.171Z,103296.09
2023-02-13T14:55:10.346Z,103419.47
2023-02-13T14:58:16.507Z,103362.50
2023-02-13T15:01:31.352Z,103283.22
2023-02-13T15:04:29.203Z,103274.56
2023-02-13T15:07:00.322Z,103372.84
2023-02-13T15:09:41.349Z,103287.19
2023-02-13T15:12:34.728Z,103382.22
2023-02-13T15:15:25.808Z,103332.91
2023-02-13T15:22:55.243Z,103371.47
2023-02-13T15:29:44.214Z,103306.22
2023-02-13T15:37:02.501Z,103323.69
2023-02-13T15:44:34.943Z,103343.06
2023-02-13T15:48:15.869Z,103263.75
2023-02-13T15:50:51.879Z,103379.16
2023-02-13T15:53:30.006Z,103295.03
2023-02-13T15:59:32.947Z,103356.94
2023-02-13T16:02:50.546Z,103386.81
2023-02-13T16:09:03.349Z,103365.72
2023-02-13T16:15:40.108Z,103376.38
2023-02-13T16:18:55.898Z,103363.56
2023-02-13T16:21:31.389Z,103288.56
2023-02-13T16:28:47.952Z,103235.94
2023-02-13T16:35:38.802Z,103350.66
2023-02-13T16:38:39.195Z,103337.16
2023-02-13T16:41:28.636Z,103374.38
2023-02-13T16:44:03.043Z,103247.63
2023-02-13T16:46:41.270Z,103363.63
2023-02-13T16:49:52.026Z,103365.16
2023-02-13T16:52:26.763Z,103332.59
2023-02-13T16:55:04.665Z,103360.78
2023-02-13T16:57:37.466Z,103250.59
2023-02-13T17:00:27.266Z,103372.34
2023-02-13T17:03:38.013Z,103274.53
2023-02-13T17:06:06.502Z,103256.56
2023-02-13T17:08:49.152Z,103268.91
2023-02-13T17:11:32.871Z,103370.63
2023-02-13T17:14:33.701Z,103285.31
2023-02-13T17:17:32.343Z,103269.00
2023-02-13T17:20:08.996Z,103276.22
2023-02-13T17:34:45.891Z,103379.78
2023-02-13T17:37:26.090Z,103327.44
2023-02-13T17:39:54.931Z,103290.84
2023-02-13T17:42:36.024Z,103307.84
2023-02-13T17:45:04.575Z,103320.56
2023-02-13T17:47:34.864Z,103285.44
2023-02-13T17:50:10.447Z,103316.69
2023-02-13T17:52:44.705Z,103279.44
2023-02-13T17:55:25.802Z,103331.53
2023-02-13T17:58:00.423Z,103382.94
2023-02-13T18:00:35.715Z,103332.03
2023-02-13T18:03:06.906Z,103322.34
2023-02-13T18:06:02.648Z,103319.09
2023-02-13T18:08:38.431Z,103297.13
2023-02-13T18:11:11.327Z,103326.56
2023-02-13T18:13:47.969Z,103384.31
2023-02-13T18:16:16.504Z,103355.97
2023-02-13T18:18:44.880Z,103379.69
2023-02-13T18:21:13.744Z,103283.34
2023-02-13T18:23:43.941Z,103371.41
2023-02-13T18:26:11.702Z,103382.84
2023-02-13T18:28:42.260Z,103378.16
2023-02-13T18:31:22.345Z,103369.50
2023-02-13T18:34:03.383Z,103356.06
2023-02-13T18:36:34.671Z,103328.75
2023-02-13T18:39:02.809Z,103285.94
2023-02-13T18:41:30.972Z,103351.84
2023-02-13T18:44:04.450Z,103272.13
2023-02-13T18:46:32.626Z,103338.75
2023-02-13T18:49:00.605Z,103318.59
2023-02-13T18:51:34.338Z,103369.69
2023-02-13T18:54:02.290Z,103372.63
2023-02-13T18:56:33.703Z,103328.75
2023-02-13T18:59:04.884Z,103282.72
2023-02-13T19:01:35.538Z,103280.56
2023-02-13T19:04:52.810Z,103272.47
2023-02-13T19:07:29.039Z,103300.78
2023-02-13T19:14:02.406Z,103281.50
2023-02-13T19:19:08.414Z,103362.41
2023-02-13T19:20:34.081Z,103298.22
2023-02-13T19:23:03.043Z,103326.47
2023-02-13T19:25:40.114Z,103319.88
2023-02-13T19:28:22.006Z,103322.81
2023-02-13T19:31:15.513Z,103279.47
2023-02-13T19:33:44.359Z,103384.28
2023-02-13T19:36:20.680Z,103377.53
2023-02-13T19:38:57.039Z,103370.69
2023-02-13T19:41:25.737Z,103305.75
2023-02-13T19:43:54.239Z,103254.31
2023-02-13T19:46:37.185Z,103267.69
2023-02-13T19:49:07.650Z,103323.84
2023-02-13T19:51:42.506Z,103329.38
2023-02-13T19:54:15.344Z,103319.56
2023-02-13T19:56:49.849Z,103324.44
2023-02-13T19:59:20.734Z,103377.25
2023-02-13T20:01:51.133Z,103393.50
2023-02-13T20:04:18.983Z,103355.94
2023-02-13T20:06:46.702Z,103382.78
2023-02-13T20:09:20.039Z,103382.03
2023-02-13T20:11:54.144Z,103294.41
2023-02-13T20:14:22.130Z,103380.03
2023-02-13T20:16:50.040Z,103396.91
2023-02-13T20:19:19.504Z,103401.22
2023-02-13T20:21:47.800Z,103330.19
2023-02-13T20:25:56.523Z,103372.22
2023-02-13T20:28:52.248Z,103395.91
2023-02-13T20:32:19.855Z,103300.91
2023-02-13T20:35:32.945Z,103286.56
2023-02-13T20:38:16.847Z,103301.53
2023-02-13T20:41:03.914Z,103376.59
2023-02-13T20:43:36.553Z,103408.19
2023-02-13T20:46:15.920Z,103412.31
2023-02-13T20:48:52.275Z,103307.31
2023-02-13T20:51:31.307Z,103302.91
2023-02-13T20:54:01.685Z,103311.84
2023-02-13T20:56:32.288Z,103403.97
2023-02-13T20:59:12.005Z,103340.28
2023-02-13T21:02:16.874Z,103345.13
2023-02-13T21:05:52.368Z,103427.44
2023-02-13T21:08:39.748Z,103363.38
2023-02-13T21:11:29.571Z,103369.31
2023-02-13T21:14:51.432Z,103320.31
2023-02-13T21:20:28.959Z,103404.56
2023-02-13T21:31:12.329Z,103414.84
2023-02-13T21:34:11.354Z,103326.56
2023-02-13T21:37:05.555Z,103390.31
2023-02-13T21:40:02.940Z,103325.50
2023-02-13T21:43:20.706Z,103378.22
2023-02-13T21:45:50.053Z,103305.75
2023-02-13T21:48:21.979Z,103373.03
2023-02-13T21:51:31.144Z,103370.34
2023-02-13T21:54:02.532Z,103361.16
2023-02-13T21:57:44.843Z,103302.47
2023-02-13T22:00:18.106Z,103361.13
2023-02-13T22:02:48.753Z,103384.50
2023-02-13T22:05:19.059Z,103368.06
2023-02-13T22:08:07.925Z,103381.41
2023-02-13T22:11:01.525Z,103415.78
2023-02-13T22:13:36.886Z,103354.56
2023-02-13T22:16:10.129Z,103386.91
2023-02-13T22:19:18.614Z,103398.09
2023-02-13T22:21:50.889Z,103420.53
2023-02-13T22:24:29.816Z,103294.88
2023-02-13T22:27:28.999Z,103334.28
2023-02-13T22:29:59.934Z,103339.75
2023-02-13T22:32:31.760Z,103329.44
2023-02-13T22:35:16.684Z,103326.72
2023-02-13T22:37:45.898Z,103425.41
2023-02-13T22:40:20.337Z,103436.22
2023-02-13T22:42:56.599Z,103324.06
2023-02-13T22:45:27.176Z,103423.38
2023-02-13T22:48:00.414Z,103399.84
2023-02-13T22:50:28.550Z,103333.34
2023-02-13T22:52:56.531Z,103380.56
2023-02-13T22:55:27.805Z,103334.97
2023-02-13T22:57:58.360Z,103430.06
2023-02-13T23:00:26.525Z,103402.41
2023-02-13T23:02:54.388Z,103408.13
2023-02-13T23:05:29.703Z,103442.88
2023-02-13T23:08:00.034Z,103435.81
2023-02-13T23:10:34.906Z,103440.06
2023-02-13T23:13:03.297Z,103354.25
2023-02-13T23:15:38.542Z,103422.44
2023-02-13T23:18:18.211Z,103449.50
2023-02-13T23:21:39.711Z,103391.66
2023-02-13T23:23:40.848Z,103347.59
2023-02-13T23:26:08.971Z,103363.38
2023-02-13T23:28:36.942Z,103352.53
2023-02-13T23:31:07.471Z,103355.38
2023-02-13T23:33:39.728Z,103396.16
2023-02-13T23:36:11.155Z,103365.25
2023-02-13T23:38:40.542Z,103414.03
2023-02-13T23:41:17.836Z,103331.63
2023-02-13T23:43:48.866Z,103400.81
2023-02-13T23:46:19.566Z,103394.50
2023-02-13T23:48:47.779Z,103332.53
2023-02-13T23:51:29.989Z,103333.66
2023-02-13T23:54:00.527Z,103443.88
2023-02-13T23:56:31.513Z,103379.38
2023-02-13T23:59:09.473Z,103366.16
